sensor_id;sensor_type;location;lat;lon;timestamp;P1;durP1;ratioP1;P2;durP2;ratioP2
59984;SDS011;45843;47.532;18.660;2022-07-23T00:02:21;18.30;;;8.50;;
59984;SDS011;45843;47.532;18.660;2022-07-23T00:04:48;12.18;;;8.02;;
59984;SDS011;45843;47.532;18.660;2022-07-23T00:07:14;16.13;;;7.57;;
59984;SDS011;45843;47.532;18.660;2022-07-23T00:10:20;11.73;;;8.20;;
59984;SDS011;45843;47.532;18.660;2022-07-23T00:13:27;13.10;;;7.90;;
59984;SDS011;45843;47.532;18.660;2022-07-23T00:16:33;15.70;;;8.32;;
59984;SDS011;45843;47.532;18.660;2022-07-23T00:19:39;14.13;;;7.70;;
59984;SDS011;45843;47.532;18.660;2022-07-23T00:22:49;12.10;;;7.63;;
59984;SDS011;45843;47.532;18.660;2022-07-23T00:25:51;14.23;;;7.45;;
59984;SDS011;45843;47.532;18.660;2022-07-23T00:28:57;10.57;;;7.38;;
59984;SDS011;45843;47.532;18.660;2022-07-23T00:32:04;12.55;;;7.15;;
59984;SDS011;45843;47.532;18.660;2022-07-23T00:35:10;11.25;;;7.00;;
59984;SDS011;45843;47.532;18.660;2022-07-23T00:38:16;15.23;;;8.05;;
59984;SDS011;45843;47.532;18.660;2022-07-23T00:41:23;12.30;;;8.13;;
59984;SDS011;45843;47.532;18.660;2022-07-23T00:44:29;12.23;;;7.43;;
59984;SDS011;45843;47.532;18.660;2022-07-23T00:47:35;13.70;;;7.47;;
59984;SDS011;45843;47.532;18.660;2022-07-23T00:50:42;16.27;;;8.07;;
59984;SDS011;45843;47.532;18.660;2022-07-23T00:53:09;12.95;;;7.55;;
59984;SDS011;45843;47.532;18.660;2022-07-23T00:55:35;11.40;;;6.90;;
59984;SDS011;45843;47.532;18.660;2022-07-23T00:58:02;13.32;;;7.53;;
59984;SDS011;45843;47.532;18.660;2022-07-23T01:00:28;12.30;;;6.70;;
59984;SDS011;45843;47.532;18.660;2022-07-23T01:02:55;13.18;;;6.68;;
59984;SDS011;45843;47.532;18.660;2022-07-23T01:05:21;12.30;;;6.85;;
59984;SDS011;45843;47.532;18.660;2022-07-23T01:08:27;10.93;;;7.00;;
59984;SDS011;45843;47.532;18.660;2022-07-23T01:11:34;15.40;;;7.18;;
59984;SDS011;45843;47.532;18.660;2022-07-23T01:14:40;10.73;;;7.05;;
59984;SDS011;45843;47.532;18.660;2022-07-23T01:17:46;12.77;;;7.93;;
59984;SDS011;45843;47.532;18.660;2022-07-23T01:20:52;14.45;;;7.18;;
59984;SDS011;45843;47.532;18.660;2022-07-23T01:23:58;11.20;;;7.47;;
59984;SDS011;45843;47.532;18.660;2022-07-23T01:27:03;13.07;;;7.75;;
59984;SDS011;45843;47.532;18.660;2022-07-23T01:30:10;12.02;;;7.20;;
59984;SDS011;45843;47.532;18.660;2022-07-23T01:33:16;12.32;;;7.15;;
59984;SDS011;45843;47.532;18.660;2022-07-23T01:36:22;11.68;;;6.93;;
59984;SDS011;45843;47.532;18.660;2022-07-23T01:39:29;9.75;;;6.85;;
59984;SDS011;45843;47.532;18.660;2022-07-23T01:42:35;13.18;;;7.53;;
59984;SDS011;45843;47.532;18.660;2022-07-23T01:45:41;12.27;;;7.22;;
59984;SDS011;45843;47.532;18.660;2022-07-23T01:51:14;9.18;;;6.50;;
59984;SDS011;45843;47.532;18.660;2022-07-23T01:53:40;13.63;;;7.70;;
59984;SDS011;45843;47.532;18.660;2022-07-23T01:56:07;11.07;;;7.20;;
59984;SDS011;45843;47.532;18.660;2022-07-23T01:58:33;10.40;;;7.53;;
59984;SDS011;45843;47.532;18.660;2022-07-23T02:00:59;9.80;;;7.25;;
59984;SDS011;45843;47.532;18.660;2022-07-23T02:03:26;10.23;;;7.07;;
59984;SDS011;45843;47.532;18.660;2022-07-23T02:05:52;11.90;;;7.50;;
59984;SDS011;45843;47.532;18.660;2022-07-23T02:08:19;12.95;;;7.30;;
59984;SDS011;45843;47.532;18.660;2022-07-23T02:10:45;14.90;;;7.35;;
59984;SDS011;45843;47.532;18.660;2022-07-23T02:13:12;10.40;;;7.18;;
59984;SDS011;45843;47.532;18.660;2022-07-23T02:15:39;12.65;;;7.78;;
59984;SDS011;45843;47.532;18.660;2022-07-23T02:18:05;12.70;;;6.97;;
59984;SDS011;45843;47.532;18.660;2022-07-23T02:20:33;10.38;;;6.72;;
59984;SDS011;45843;47.532;18.660;2022-07-23T02:23:00;15.90;;;7.88;;
59984;SDS011;45843;47.532;18.660;2022-07-23T02:25:26;11.88;;;7.15;;
59984;SDS011;45843;47.532;18.660;2022-07-23T02:27:53;13.93;;;7.47;;
59984;SDS011;45843;47.532;18.660;2022-07-23T02:30:19;13.70;;;7.72;;
59984;SDS011;45843;47.532;18.660;2022-07-23T02:32:46;11.13;;;7.15;;
59984;SDS011;45843;47.532;18.660;2022-07-23T02:35:12;10.20;;;7.50;;
59984;SDS011;45843;47.532;18.660;2022-07-23T02:38:18;12.52;;;7.47;;
59984;SDS011;45843;47.532;18.660;2022-07-23T02:41:24;12.15;;;7.05;;
59984;SDS011;45843;47.532;18.660;2022-07-23T02:44:31;11.88;;;6.88;;
59984;SDS011;45843;47.532;18.660;2022-07-23T02:47:37;16.10;;;7.35;;
59984;SDS011;45843;47.532;18.660;2022-07-23T02:50:43;12.45;;;7.43;;
59984;SDS011;45843;47.532;18.660;2022-07-23T02:53:09;9.35;;;6.70;;
59984;SDS011;45843;47.532;18.660;2022-07-23T02:55:36;12.30;;;7.32;;
59984;SDS011;45843;47.532;18.660;2022-07-23T02:58:02;12.02;;;7.43;;
59984;SDS011;45843;47.532;18.660;2022-07-23T03:00:29;12.48;;;7.47;;
59984;SDS011;45843;47.532;18.660;2022-07-23T03:02:55;10.93;;;7.35;;
59984;SDS011;45843;47.532;18.660;2022-07-23T03:05:22;12.88;;;7.25;;
59984;SDS011;45843;47.532;18.660;2022-07-23T03:07:48;13.10;;;7.35;;
59984;SDS011;45843;47.532;18.660;2022-07-23T03:10:54;13.48;;;8.38;;
59984;SDS011;45843;47.532;18.660;2022-07-23T03:14:00;12.18;;;6.78;;
59984;SDS011;45843;47.532;18.660;2022-07-23T03:17:07;16.40;;;7.22;;
59984;SDS011;45843;47.532;18.660;2022-07-23T03:20:13;11.00;;;6.60;;
59984;SDS011;45843;47.532;18.660;2022-07-23T03:23:19;11.88;;;7.28;;
59984;SDS011;45843;47.532;18.660;2022-07-23T03:26:25;13.90;;;7.68;;
59984;SDS011;45843;47.532;18.660;2022-07-23T03:29:31;12.13;;;6.82;;
59984;SDS011;45843;47.532;18.660;2022-07-23T03:32:38;11.48;;;6.85;;
59984;SDS011;45843;47.532;18.660;2022-07-23T03:35:44;14.55;;;7.43;;
59984;SDS011;45843;47.532;18.660;2022-07-23T03:38:50;12.65;;;7.20;;
59984;SDS011;45843;47.532;18.660;2022-07-23T03:41:56;11.48;;;7.30;;
59984;SDS011;45843;47.532;18.660;2022-07-23T03:45:03;11.65;;;6.65;;
59984;SDS011;45843;47.532;18.660;2022-07-23T03:48:09;14.60;;;7.70;;
59984;SDS011;45843;47.532;18.660;2022-07-23T03:50:59;13.50;;;7.10;;
59984;SDS011;45843;47.532;18.660;2022-07-23T03:53:26;17.33;;;8.13;;
59984;SDS011;45843;47.532;18.660;2022-07-23T03:55:52;13.35;;;6.95;;
59984;SDS011;45843;47.532;18.660;2022-07-23T03:58:18;12.20;;;6.80;;
59984;SDS011;45843;47.532;18.660;2022-07-23T04:00:45;12.85;;;7.13;;
59984;SDS011;45843;47.532;18.660;2022-07-23T04:03:11;11.65;;;7.57;;
59984;SDS011;45843;47.532;18.660;2022-07-23T04:05:38;11.18;;;7.22;;
59984;SDS011;45843;47.532;18.660;2022-07-23T04:08:44;11.00;;;6.40;;
59984;SDS011;45843;47.532;18.660;2022-07-23T04:11:50;12.00;;;7.53;;
59984;SDS011;45843;47.532;18.660;2022-07-23T04:14:56;11.18;;;6.95;;
59984;SDS011;45843;47.532;18.660;2022-07-23T04:18:03;12.30;;;7.03;;
59984;SDS011;45843;47.532;18.660;2022-07-23T04:21:09;11.43;;;6.97;;
59984;SDS011;45843;47.532;18.660;2022-07-23T04:24:14;13.93;;;7.00;;
59984;SDS011;45843;47.532;18.660;2022-07-23T04:27:20;10.75;;;6.45;;
59984;SDS011;45843;47.532;18.660;2022-07-23T04:30:26;9.43;;;7.07;;
59984;SDS011;45843;47.532;18.660;2022-07-23T04:33:33;14.65;;;7.88;;
59984;SDS011;45843;47.532;18.660;2022-07-23T04:36:37;12.30;;;7.45;;
59984;SDS011;45843;47.532;18.660;2022-07-23T04:39:44;17.67;;;10.27;;
59984;SDS011;45843;47.532;18.660;2022-07-23T04:42:50;13.32;;;7.90;;
59984;SDS011;45843;47.532;18.660;2022-07-23T04:45:56;13.27;;;7.38;;
59984;SDS011;45843;47.532;18.660;2022-07-23T04:49:02;11.30;;;6.25;;
59984;SDS011;45843;47.532;18.660;2022-07-23T04:51:29;12.23;;;7.47;;
59984;SDS011;45843;47.532;18.660;2022-07-23T04:53:55;22.83;;;8.57;;
59984;SDS011;45843;47.532;18.660;2022-07-23T04:56:22;21.88;;;8.15;;
59984;SDS011;45843;47.532;18.660;2022-07-23T04:58:48;15.40;;;7.40;;
59984;SDS011;45843;47.532;18.660;2022-07-23T05:01:15;12.20;;;7.53;;
59984;SDS011;45843;47.532;18.660;2022-07-23T05:03:41;16.10;;;7.78;;
59984;SDS011;45843;47.532;18.660;2022-07-23T05:06:07;17.45;;;7.57;;
59984;SDS011;45843;47.532;18.660;2022-07-23T05:08:34;12.60;;;7.85;;
59984;SDS011;45843;47.532;18.660;2022-07-23T05:11:00;11.77;;;7.75;;
59984;SDS011;45843;47.532;18.660;2022-07-23T05:13:27;12.40;;;8.02;;
59984;SDS011;45843;47.532;18.660;2022-07-23T05:15:53;14.43;;;7.97;;
59984;SDS011;45843;47.532;18.660;2022-07-23T05:18:19;12.52;;;7.95;;
59984;SDS011;45843;47.532;18.660;2022-07-23T05:20:46;11.68;;;7.15;;
59984;SDS011;45843;47.532;18.660;2022-07-23T05:23:12;13.23;;;8.10;;
59984;SDS011;45843;47.532;18.660;2022-07-23T05:25:39;12.88;;;8.90;;
59984;SDS011;45843;47.532;18.660;2022-07-23T05:28:06;15.77;;;8.13;;
59984;SDS011;45843;47.532;18.660;2022-07-23T05:30:32;12.57;;;7.85;;
59984;SDS011;45843;47.532;18.660;2022-07-23T05:32:58;12.98;;;8.13;;
59984;SDS011;45843;47.532;18.660;2022-07-23T05:35:25;14.27;;;8.15;;
59984;SDS011;45843;47.532;18.660;2022-07-23T05:37:51;14.20;;;8.65;;
59984;SDS011;45843;47.532;18.660;2022-07-23T05:40:18;18.67;;;8.75;;
59984;SDS011;45843;47.532;18.660;2022-07-23T05:42:44;16.10;;;8.80;;
59984;SDS011;45843;47.532;18.660;2022-07-23T05:45:11;15.48;;;8.38;;
59984;SDS011;45843;47.532;18.660;2022-07-23T05:47:41;12.38;;;7.72;;
59984;SDS011;45843;47.532;18.660;2022-07-23T05:50:46;16.50;;;8.15;;
59984;SDS011;45843;47.532;18.660;2022-07-23T05:53:13;13.50;;;8.15;;
59984;SDS011;45843;47.532;18.660;2022-07-23T05:55:39;15.43;;;9.35;;
59984;SDS011;45843;47.532;18.660;2022-07-23T05:58:06;14.68;;;8.57;;
59984;SDS011;45843;47.532;18.660;2022-07-23T06:00:32;15.13;;;8.73;;
59984;SDS011;45843;47.532;18.660;2022-07-23T06:02:58;12.23;;;8.10;;
59984;SDS011;45843;47.532;18.660;2022-07-23T06:05:25;12.23;;;8.45;;
59984;SDS011;45843;47.532;18.660;2022-07-23T06:07:51;14.15;;;8.70;;
59984;SDS011;45843;47.532;18.660;2022-07-23T06:10:18;14.00;;;8.55;;
59984;SDS011;45843;47.532;18.660;2022-07-23T06:12:45;15.32;;;9.13;;
59984;SDS011;45843;47.532;18.660;2022-07-23T06:15:12;15.60;;;8.15;;
59984;SDS011;45843;47.532;18.660;2022-07-23T06:17:39;15.05;;;8.68;;
59984;SDS011;45843;47.532;18.660;2022-07-23T06:20:06;12.13;;;7.90;;
59984;SDS011;45843;47.532;18.660;2022-07-23T06:23:12;10.50;;;7.45;;
59984;SDS011;45843;47.532;18.660;2022-07-23T06:26:18;12.25;;;8.48;;
59984;SDS011;45843;47.532;18.660;2022-07-23T06:29:24;12.00;;;8.23;;
59984;SDS011;45843;47.532;18.660;2022-07-23T06:32:31;12.25;;;8.40;;
59984;SDS011;45843;47.532;18.660;2022-07-23T06:35:37;13.60;;;8.73;;
59984;SDS011;45843;47.532;18.660;2022-07-23T06:38:43;14.70;;;9.48;;
59984;SDS011;45843;47.532;18.660;2022-07-23T06:41:50;11.48;;;8.30;;
59984;SDS011;45843;47.532;18.660;2022-07-23T06:44:55;15.65;;;8.13;;
59984;SDS011;45843;47.532;18.660;2022-07-23T06:48:02;16.08;;;9.27;;
59984;SDS011;45843;47.532;18.660;2022-07-23T06:50:29;13.23;;;9.52;;
59984;SDS011;45843;47.532;18.660;2022-07-23T06:52:55;14.05;;;10.00;;
59984;SDS011;45843;47.532;18.660;2022-07-23T06:55:21;11.90;;;8.32;;
59984;SDS011;45843;47.532;18.660;2022-07-23T06:57:48;12.13;;;8.85;;
59984;SDS011;45843;47.532;18.660;2022-07-23T07:00:14;17.55;;;9.05;;
59984;SDS011;45843;47.532;18.660;2022-07-23T07:02:40;13.63;;;8.88;;
59984;SDS011;45843;47.532;18.660;2022-07-23T07:05:07;12.13;;;8.82;;
59984;SDS011;45843;47.532;18.660;2022-07-23T07:07:34;14.48;;;10.18;;
59984;SDS011;45843;47.532;18.660;2022-07-23T07:10:01;12.05;;;9.27;;
59984;SDS011;45843;47.532;18.660;2022-07-23T07:12:28;14.35;;;10.07;;
59984;SDS011;45843;47.532;18.660;2022-07-23T07:14:54;14.43;;;9.55;;
59984;SDS011;45843;47.532;18.660;2022-07-23T07:17:20;16.15;;;10.18;;
59984;SDS011;45843;47.532;18.660;2022-07-23T07:19:47;15.70;;;11.40;;
59984;SDS011;45843;47.532;18.660;2022-07-23T07:22:14;14.07;;;10.27;;
59984;SDS011;45843;47.532;18.660;2022-07-23T07:24:40;19.65;;;11.57;;
59984;SDS011;45843;47.532;18.660;2022-07-23T07:27:07;22.10;;;11.80;;
59984;SDS011;45843;47.532;18.660;2022-07-23T07:29:33;17.27;;;11.10;;
59984;SDS011;45843;47.532;18.660;2022-07-23T07:31:59;22.60;;;12.15;;
59984;SDS011;45843;47.532;18.660;2022-07-23T07:34:26;16.10;;;10.88;;
59984;SDS011;45843;47.532;18.660;2022-07-23T07:36:52;16.70;;;11.38;;
59984;SDS011;45843;47.532;18.660;2022-07-23T07:39:59;19.73;;;11.55;;
59984;SDS011;45843;47.532;18.660;2022-07-23T07:43:05;19.13;;;11.60;;
59984;SDS011;45843;47.532;18.660;2022-07-23T07:46:11;21.33;;;12.55;;
59984;SDS011;45843;47.532;18.660;2022-07-23T07:49:17;19.83;;;11.32;;
59984;SDS011;45843;47.532;18.660;2022-07-23T07:51:45;17.83;;;12.30;;
59984;SDS011;45843;47.532;18.660;2022-07-23T07:54:11;19.52;;;11.25;;
59984;SDS011;45843;47.532;18.660;2022-07-23T07:56:38;16.98;;;11.30;;
59984;SDS011;45843;47.532;18.660;2022-07-23T07:59:05;19.42;;;9.82;;
59984;SDS011;45843;47.532;18.660;2022-07-23T08:01:31;19.10;;;9.60;;
59984;SDS011;45843;47.532;18.660;2022-07-23T08:03:58;15.10;;;9.45;;
59984;SDS011;45843;47.532;18.660;2022-07-23T08:06:24;18.90;;;10.40;;
59984;SDS011;45843;47.532;18.660;2022-07-23T08:09:31;16.45;;;10.07;;
59984;SDS011;45843;47.532;18.660;2022-07-23T08:11:57;17.60;;;10.43;;
59984;SDS011;45843;47.532;18.660;2022-07-23T08:14:24;15.27;;;10.43;;
59984;SDS011;45843;47.532;18.660;2022-07-23T08:16:50;15.32;;;10.18;;
59984;SDS011;45843;47.532;18.660;2022-07-23T08:19:16;14.93;;;9.82;;
59984;SDS011;45843;47.532;18.660;2022-07-23T08:21:43;13.98;;;9.77;;
59984;SDS011;45843;47.532;18.660;2022-07-23T08:24:09;19.35;;;11.38;;
59984;SDS011;45843;47.532;18.660;2022-07-23T08:26:36;15.15;;;10.10;;
59984;SDS011;45843;47.532;18.660;2022-07-23T08:29:02;17.23;;;10.60;;
59984;SDS011;45843;47.532;18.660;2022-07-23T08:31:28;24.80;;;10.52;;
59984;SDS011;45843;47.532;18.660;2022-07-23T08:33:55;13.68;;;9.77;;
59984;SDS011;45843;47.532;18.660;2022-07-23T08:36:22;32.15;;;12.88;;
59984;SDS011;45843;47.532;18.660;2022-07-23T08:38:49;16.88;;;9.73;;
59984;SDS011;45843;47.532;18.660;2022-07-23T08:41:15;14.68;;;9.32;;
59984;SDS011;45843;47.532;18.660;2022-07-23T08:43:42;11.57;;;8.10;;
59984;SDS011;45843;47.532;18.660;2022-07-23T08:46:08;15.40;;;9.65;;
59984;SDS011;45843;47.532;18.660;2022-07-23T08:48:35;14.95;;;9.00;;
59984;SDS011;45843;47.532;18.660;2022-07-23T08:51:02;13.88;;;9.40;;
59984;SDS011;45843;47.532;18.660;2022-07-23T08:53:29;15.13;;;9.63;;
59984;SDS011;45843;47.532;18.660;2022-07-23T08:55:58;18.15;;;9.20;;
59984;SDS011;45843;47.532;18.660;2022-07-23T08:58:25;18.15;;;10.68;;
59984;SDS011;45843;47.532;18.660;2022-07-23T09:00:51;17.10;;;10.23;;
59984;SDS011;45843;47.532;18.660;2022-07-23T09:03:22;16.80;;;9.00;;
59984;SDS011;45843;47.532;18.660;2022-07-23T09:05:52;16.42;;;9.57;;
59984;SDS011;45843;47.532;18.660;2022-07-23T09:08:19;15.48;;;9.82;;
59984;SDS011;45843;47.532;18.660;2022-07-23T09:10:57;14.55;;;9.30;;
59984;SDS011;45843;47.532;18.660;2022-07-23T09:15:51;11.48;;;8.80;;
59984;SDS011;45843;47.532;18.660;2022-07-23T09:18:18;15.40;;;9.52;;
59984;SDS011;45843;47.532;18.660;2022-07-23T09:20:44;13.85;;;9.13;;
59984;SDS011;45843;47.532;18.660;2022-07-23T09:23:11;16.33;;;9.52;;
59984;SDS011;45843;47.532;18.660;2022-07-23T09:25:37;16.17;;;9.80;;
59984;SDS011;45843;47.532;18.660;2022-07-23T09:28:03;15.85;;;9.63;;
59984;SDS011;45843;47.532;18.660;2022-07-23T09:30:33;12.98;;;9.38;;
59984;SDS011;45843;47.532;18.660;2022-07-23T09:33:08;13.77;;;9.70;;
59984;SDS011;45843;47.532;18.660;2022-07-23T09:35:45;15.77;;;9.55;;
59984;SDS011;45843;47.532;18.660;2022-07-23T09:38:12;13.07;;;8.48;;
59984;SDS011;45843;47.532;18.660;2022-07-23T09:40:39;13.27;;;8.43;;
59984;SDS011;45843;47.532;18.660;2022-07-23T09:43:05;12.65;;;8.55;;
59984;SDS011;45843;47.532;18.660;2022-07-23T09:45:31;11.63;;;9.35;;
59984;SDS011;45843;47.532;18.660;2022-07-23T09:48:11;11.57;;;9.15;;
59984;SDS011;45843;47.532;18.660;2022-07-23T09:50:38;13.27;;;8.90;;
59984;SDS011;45843;47.532;18.660;2022-07-23T09:53:06;13.02;;;9.15;;
59984;SDS011;45843;47.532;18.660;2022-07-23T09:55:33;10.95;;;8.55;;
59984;SDS011;45843;47.532;18.660;2022-07-23T09:58:05;11.95;;;9.07;;
59984;SDS011;45843;47.532;18.660;2022-07-23T10:00:40;14.80;;;10.18;;
59984;SDS011;45843;47.532;18.660;2022-07-23T10:03:07;11.73;;;9.23;;
59984;SDS011;45843;47.532;18.660;2022-07-23T10:05:35;14.70;;;9.45;;
59984;SDS011;45843;47.532;18.660;2022-07-23T10:08:02;14.13;;;10.07;;
59984;SDS011;45843;47.532;18.660;2022-07-23T10:10:28;12.38;;;8.57;;
59984;SDS011;45843;47.532;18.660;2022-07-23T10:12:56;13.95;;;10.23;;
59984;SDS011;45843;47.532;18.660;2022-07-23T10:15:41;15.57;;;10.00;;
59984;SDS011;45843;47.532;18.660;2022-07-23T10:18:09;13.75;;;10.55;;
59984;SDS011;45843;47.532;18.660;2022-07-23T10:20:37;14.13;;;11.40;;
59984;SDS011;45843;47.532;18.660;2022-07-23T10:23:07;17.02;;;11.68;;
59984;SDS011;45843;47.532;18.660;2022-07-23T10:25:51;14.43;;;10.32;;
59984;SDS011;45843;47.532;18.660;2022-07-23T10:28:24;14.48;;;10.35;;
59984;SDS011;45843;47.532;18.660;2022-07-23T10:42:58;15.32;;;10.57;;
59984;SDS011;45843;47.532;18.660;2022-07-23T10:46:22;18.83;;;10.27;;
59984;SDS011;45843;47.532;18.660;2022-07-23T10:49:31;19.13;;;13.07;;
59984;SDS011;45843;47.532;18.660;2022-07-23T10:54:43;17.90;;;12.63;;
59984;SDS011;45843;47.532;18.660;2022-07-23T10:57:10;20.25;;;12.65;;
59984;SDS011;45843;47.532;18.660;2022-07-23T11:02:43;14.82;;;11.15;;
59984;SDS011;45843;47.532;18.660;2022-07-23T11:05:48;17.77;;;11.68;;
59984;SDS011;45843;47.532;18.660;2022-07-23T11:15:12;15.95;;;11.18;;
59984;SDS011;45843;47.532;18.660;2022-07-23T11:18:17;21.70;;;12.75;;
59984;SDS011;45843;47.532;18.660;2022-07-23T11:24:13;18.20;;;12.02;;
59984;SDS011;45843;47.532;18.660;2022-07-23T11:27:18;20.35;;;12.88;;
59984;SDS011;45843;47.532;18.660;2022-07-23T11:36:01;18.90;;;11.52;;
59984;SDS011;45843;47.532;18.660;2022-07-23T11:39:06;17.92;;;11.07;;
59984;SDS011;45843;47.532;18.660;2022-07-23T11:42:16;18.98;;;11.50;;
59984;SDS011;45843;47.532;18.660;2022-07-23T11:45:19;19.10;;;11.77;;
59984;SDS011;45843;47.532;18.660;2022-07-23T11:50:52;15.85;;;11.15;;
59984;SDS011;45843;47.532;18.660;2022-07-23T11:53:28;43.65;;;14.52;;
59984;SDS011;45843;47.532;18.660;2022-07-23T11:56:04;21.30;;;11.73;;
59984;SDS011;45843;47.532;18.660;2022-07-23T11:58:30;14.60;;;10.63;;
59984;SDS011;45843;47.532;18.660;2022-07-23T12:00:57;18.80;;;11.63;;
59984;SDS011;45843;47.532;18.660;2022-07-23T12:03:23;20.77;;;12.70;;
59984;SDS011;45843;47.532;18.660;2022-07-23T12:05:55;18.35;;;11.10;;
59984;SDS011;45843;47.532;18.660;2022-07-23T12:08:21;18.70;;;11.55;;
59984;SDS011;45843;47.532;18.660;2022-07-23T12:10:48;14.35;;;10.85;;
59984;SDS011;45843;47.532;18.660;2022-07-23T12:13:16;16.20;;;11.85;;
59984;SDS011;45843;47.532;18.660;2022-07-23T12:15:47;15.85;;;11.00;;
59984;SDS011;45843;47.532;18.660;2022-07-23T12:18:18;19.13;;;13.20;;
59984;SDS011;45843;47.532;18.660;2022-07-23T12:20:46;17.92;;;12.18;;
59984;SDS011;45843;47.532;18.660;2022-07-23T12:23:14;14.57;;;10.77;;
59984;SDS011;45843;47.532;18.660;2022-07-23T12:25:42;20.20;;;13.30;;
59984;SDS011;45843;47.532;18.660;2022-07-23T12:28:09;15.73;;;11.38;;
59984;SDS011;45843;47.532;18.660;2022-07-23T12:31:14;20.52;;;12.13;;
59984;SDS011;45843;47.532;18.660;2022-07-23T12:33:41;19.15;;;12.23;;
59984;SDS011;45843;47.532;18.660;2022-07-23T12:36:09;18.25;;;11.00;;
59984;SDS011;45843;47.532;18.660;2022-07-23T12:38:38;15.13;;;11.57;;
59984;SDS011;45843;47.532;18.660;2022-07-23T12:41:04;26.77;;;10.25;;
59984;SDS011;45843;47.532;18.660;2022-07-23T12:43:32;19.88;;;12.27;;
59984;SDS011;45843;47.532;18.660;2022-07-23T12:48:28;19.65;;;12.20;;
59984;SDS011;45843;47.532;18.660;2022-07-23T12:51:02;15.98;;;11.00;;
59984;SDS011;45843;47.532;18.660;2022-07-23T12:53:39;17.05;;;12.02;;
59984;SDS011;45843;47.532;18.660;2022-07-23T12:56:07;17.55;;;11.80;;
59984;SDS011;45843;47.532;18.660;2022-07-23T12:59:09;18.73;;;12.73;;
59984;SDS011;45843;47.532;18.660;2022-07-23T13:01:28;19.88;;;12.32;;
59984;SDS011;45843;47.532;18.660;2022-07-23T13:06:23;9.82;;;6.45;;
59984;SDS011;45843;47.532;18.660;2022-07-23T13:08:50;0.20;;;0.20;;
59984;SDS011;45843;47.532;18.660;2022-07-23T13:11:17;0.10;;;0.10;;
59984;SDS011;45843;47.532;18.660;2022-07-23T13:13:43;0.10;;;0.10;;
59984;SDS011;45843;47.532;18.660;2022-07-23T13:16:09;0.20;;;0.20;;
59984;SDS011;45843;47.532;18.660;2022-07-23T13:18:36;0.00;;;0.00;;
59984;SDS011;45843;47.532;18.660;2022-07-23T13:21:03;0.00;;;0.00;;
59984;SDS011;45843;47.532;18.660;2022-07-23T13:23:29;0.52;;;0.10;;
59984;SDS011;45843;47.532;18.660;2022-07-23T13:25:55;0.10;;;0.10;;
59984;SDS011;45843;47.532;18.660;2022-07-23T13:28:22;0.00;;;0.00;;
59984;SDS011;45843;47.532;18.660;2022-07-23T13:30:50;0.10;;;0.10;;
59984;SDS011;45843;47.532;18.660;2022-07-23T13:33:20;0.00;;;0.00;;
59984;SDS011;45843;47.532;18.660;2022-07-23T13:35:47;0.00;;;0.00;;
59984;SDS011;45843;47.532;18.660;2022-07-23T13:38:14;0.00;;;0.00;;
59984;SDS011;45843;47.532;18.660;2022-07-23T13:40:41;0.05;;;0.05;;
59984;SDS011;45843;47.532;18.660;2022-07-23T13:43:09;0.05;;;0.05;;
59984;SDS011;45843;47.532;18.660;2022-07-23T13:45:36;0.00;;;0.00;;
59984;SDS011;45843;47.532;18.660;2022-07-23T13:48:03;0.00;;;0.00;;
59984;SDS011;45843;47.532;18.660;2022-07-23T13:50:30;0.10;;;0.10;;
59984;SDS011;45843;47.532;18.660;2022-07-23T13:52:56;0.10;;;0.10;;
59984;SDS011;45843;47.532;18.660;2022-07-23T13:55:22;0.10;;;0.10;;
59984;SDS011;45843;47.532;18.660;2022-07-23T13:57:49;0.00;;;0.00;;
59984;SDS011;45843;47.532;18.660;2022-07-23T14:00:15;0.00;;;0.00;;
59984;SDS011;45843;47.532;18.660;2022-07-23T14:02:42;0.00;;;0.00;;
59984;SDS011;45843;47.532;18.660;2022-07-23T14:05:09;0.10;;;0.10;;
59984;SDS011;45843;47.532;18.660;2022-07-23T14:08:15;0.10;;;0.10;;
59984;SDS011;45843;47.532;18.660;2022-07-23T14:10:41;0.10;;;0.10;;
59984;SDS011;45843;47.532;18.660;2022-07-23T14:13:07;0.00;;;0.00;;
59984;SDS011;45843;47.532;18.660;2022-07-23T14:15:34;0.00;;;0.00;;
59984;SDS011;45843;47.532;18.660;2022-07-23T14:18:00;0.00;;;0.00;;
59984;SDS011;45843;47.532;18.660;2022-07-23T14:20:27;0.10;;;0.10;;
59984;SDS011;45843;47.532;18.660;2022-07-23T14:22:53;0.00;;;0.00;;
59984;SDS011;45843;47.532;18.660;2022-07-23T14:25:22;0.00;;;0.00;;
59984;SDS011;45843;47.532;18.660;2022-07-23T14:27:48;0.00;;;0.00;;
59984;SDS011;45843;47.532;18.660;2022-07-23T14:30:14;0.10;;;0.10;;
59984;SDS011;45843;47.532;18.660;2022-07-23T14:32:41;0.03;;;0.03;;
59984;SDS011;45843;47.532;18.660;2022-07-23T14:35:08;0.10;;;0.10;;
59984;SDS011;45843;47.532;18.660;2022-07-23T14:37:34;0.00;;;0.00;;
59984;SDS011;45843;47.532;18.660;2022-07-23T14:40:01;0.00;;;0.00;;
59984;SDS011;45843;47.532;18.660;2022-07-23T14:42:28;0.00;;;0.00;;
59984;SDS011;45843;47.532;18.660;2022-07-23T14:44:54;0.00;;;0.00;;
59984;SDS011;45843;47.532;18.660;2022-07-23T14:47:20;0.00;;;0.00;;
59984;SDS011;45843;47.532;18.660;2022-07-23T14:49:47;0.00;;;0.00;;
59984;SDS011;45843;47.532;18.660;2022-07-23T14:52:13;0.00;;;0.00;;
59984;SDS011;45843;47.532;18.660;2022-07-23T14:54:40;0.00;;;0.00;;
59984;SDS011;45843;47.532;18.660;2022-07-23T14:57:06;0.00;;;0.00;;
59984;SDS011;45843;47.532;18.660;2022-07-23T14:59:34;0.10;;;0.10;;
59984;SDS011;45843;47.532;18.660;2022-07-23T15:02:01;0.00;;;0.00;;
59984;SDS011;45843;47.532;18.660;2022-07-23T15:04:27;0.10;;;0.10;;
59984;SDS011;45843;47.532;18.660;2022-07-23T15:06:54;0.10;;;0.10;;
59984;SDS011;45843;47.532;18.660;2022-07-23T15:09:20;0.10;;;0.10;;
59984;SDS011;45843;47.532;18.660;2022-07-23T15:11:47;0.03;;;0.03;;
59984;SDS011;45843;47.532;18.660;2022-07-23T15:14:14;0.10;;;0.10;;
59984;SDS011;45843;47.532;18.660;2022-07-23T15:17:20;0.30;;;0.30;;
59984;SDS011;45843;47.532;18.660;2022-07-23T15:20:26;0.10;;;0.10;;
59984;SDS011;45843;47.532;18.660;2022-07-23T15:23:32;0.20;;;0.20;;
59984;SDS011;45843;47.532;18.660;2022-07-23T15:26:38;0.20;;;0.20;;
59984;SDS011;45843;47.532;18.660;2022-07-23T15:29:45;0.45;;;0.45;;
59984;SDS011;45843;47.532;18.660;2022-07-23T15:32:51;0.93;;;0.93;;
59984;SDS011;45843;47.532;18.660;2022-07-23T15:35:19;0.65;;;0.65;;
59984;SDS011;45843;47.532;18.660;2022-07-23T15:37:45;1.08;;;0.98;;
59984;SDS011;45843;47.532;18.660;2022-07-23T15:40:12;1.35;;;1.05;;
59984;SDS011;45843;47.532;18.660;2022-07-23T15:42:38;1.23;;;1.13;;
59984;SDS011;45843;47.532;18.660;2022-07-23T15:45:05;1.05;;;0.93;;
59984;SDS011;45843;47.532;18.660;2022-07-23T15:47:32;1.48;;;1.38;;
59984;SDS011;45843;47.532;18.660;2022-07-23T15:49:58;1.10;;;1.05;;
59984;SDS011;45843;47.532;18.660;2022-07-23T15:52:24;1.25;;;1.15;;
59984;SDS011;45843;47.532;18.660;2022-07-23T15:54:51;0.98;;;0.82;;
59984;SDS011;45843;47.532;18.660;2022-07-23T15:57:20;0.73;;;0.73;;
59984;SDS011;45843;47.532;18.660;2022-07-23T15:59:47;0.73;;;0.73;;
59984;SDS011;45843;47.532;18.660;2022-07-23T16:02:13;0.75;;;0.75;;
59984;SDS011;45843;47.532;18.660;2022-07-23T16:04:41;0.63;;;0.63;;
59984;SDS011;45843;47.532;18.660;2022-07-23T16:07:07;0.52;;;0.52;;
59984;SDS011;45843;47.532;18.660;2022-07-23T16:09:33;0.60;;;0.60;;